sensor_id;sensor_type;location;lat;lon;timestamp;pressure;altitude;pressure_sealevel;temperature;humidity
77979;BME280;67169;50.268;8.694;2023-04-25T00:02:19;98976.25;;;7.58;88.66
77979;BME280;67169;50.268;8.694;2023-04-25T00:04:46;98972.19;;;7.48;89.00
77979;BME280;67169;50.268;8.694;2023-04-25T00:07:14;98894.16;;;7.13;86.55
77979;BME280;67169;50.268;8.694;2023-04-25T00:09:42;98966.91;;;7.47;86.19
77979;BME280;67169;50.268;8.694;2023-04-25T00:12:08;98986.00;;;7.59;86.74
77979;BME280;67169;50.268;8.694;2023-04-25T00:14:35;98976.47;;;7.52;86.00
77979;BME280;67169;50.268;8.694;2023-04-25T00:17:01;98980.59;;;7.61;84.51
77979;BME280;67169;50.268;8.694;2023-04-25T00:19:29;98974.63;;;7.54;84.47
77979;BME280;67169;50.268;8.694;2023-04-25T00:21:56;98978.16;;;7.55;84.86
77979;BME280;67169;50.268;8.694;2023-04-25T00:24:22;98975.41;;;7.56;85.60
77979;BME280;67169;50.268;8.694;2023-04-25T00:26:50;98980.84;;;7.55;86.08
77979;BME280;67169;50.268;8.694;2023-04-25T00:29:17;98980.09;;;7.51;85.86
77979;BME280;67169;50.268;8.694;2023-04-25T00:31:43;98981.25;;;7.44;87.84
77979;BME280;67169;50.268;8.694;2023-04-25T00:34:09;98983.16;;;7.41;89.03
77979;BME280;67169;50.268;8.694;2023-04-25T00:36:36;98978.06;;;7.34;89.70
77979;BME280;67169;50.268;8.694;2023-04-25T00:39:03;98982.41;;;7.37;89.98
77979;BME280;67169;50.268;8.694;2023-04-25T00:41:30;98980.00;;;7.29;89.89
77979;BME280;67169;50.268;8.694;2023-04-25T00:43:59;98976.34;;;7.32;90.03
77979;BME280;67169;50.268;8.694;2023-04-25T00:46:26;98983.31;;;7.36;89.96
77979;BME280;67169;50.268;8.694;2023-04-25T00:48:52;98983.41;;;7.34;89.72
77979;BME280;67169;50.268;8.694;2023-04-25T00:51:20;98980.06;;;7.28;90.21
77979;BME280;67169;50.268;8.694;2023-04-25T00:53:47;98975.38;;;7.34;90.03
77979;BME280;67169;50.268;8.694;2023-04-25T00:56:15;98979.66;;;7.38;89.99
77979;BME280;67169;50.268;8.694;2023-04-25T00:58:42;98974.50;;;7.34;90.16
77979;BME280;67169;50.268;8.694;2023-04-25T01:01:11;98971.00;;;7.32;90.51
77979;BME280;67169;50.268;8.694;2023-04-25T01:03:38;98971.13;;;7.29;90.68
77979;BME280;67169;50.268;8.694;2023-04-25T01:06:07;98870.81;;;6.70;90.92
77979;BME280;67169;50.268;8.694;2023-04-25T01:08:34;98971.22;;;7.26;91.29
77979;BME280;67169;50.268;8.694;2023-04-25T01:11:01;98974.72;;;7.28;91.37
77979;BME280;67169;50.268;8.694;2023-04-25T01:13:28;98901.63;;;6.80;91.37
77979;BME280;67169;50.268;8.694;2023-04-25T01:15:54;98894.72;;;6.75;91.27
77979;BME280;67169;50.268;8.694;2023-04-25T01:18:22;98966.03;;;7.23;90.47
77979;BME280;67169;50.268;8.694;2023-04-25T01:20:50;98980.28;;;7.22;87.92
77979;BME280;67169;50.268;8.694;2023-04-25T01:23:19;98976.75;;;7.21;83.91
77979;BME280;67169;50.268;8.694;2023-04-25T01:25:46;98974.16;;;7.20;82.04
77979;BME280;67169;50.268;8.694;2023-04-25T01:28:14;98903.44;;;6.80;82.64
77979;BME280;67169;50.268;8.694;2023-04-25T01:30:41;98965.19;;;7.21;81.17
77979;BME280;67169;50.268;8.694;2023-04-25T01:33:08;98823.94;;;6.38;82.36
77979;BME280;67169;50.268;8.694;2023-04-25T01:35:35;98959.78;;;7.22;82.13
77979;BME280;67169;50.268;8.694;2023-04-25T01:38:01;98965.19;;;7.21;82.83
77979;BME280;67169;50.268;8.694;2023-04-25T01:40:30;98972.47;;;7.17;83.20
77979;BME280;67169;50.268;8.694;2023-04-25T01:42:57;98970.19;;;7.06;83.34
77979;BME280;67169;50.268;8.694;2023-04-25T01:45:24;98957.78;;;7.04;83.41
77979;BME280;67169;50.268;8.694;2023-04-25T01:47:51;98967.63;;;7.03;86.66
77979;BME280;67169;50.268;8.694;2023-04-25T01:50:18;98969.47;;;7.01;86.27
77979;BME280;67169;50.268;8.694;2023-04-25T01:52:45;98960.69;;;6.98;84.25
77979;BME280;67169;50.268;8.694;2023-04-25T01:55:11;98964.56;;;6.89;82.97
77979;BME280;67169;50.268;8.694;2023-04-25T01:57:39;98969.94;;;6.89;82.48
77979;BME280;67169;50.268;8.694;2023-04-25T02:00:07;98980.66;;;6.87;82.75
77979;BME280;67169;50.268;8.694;2023-04-25T02:02:35;98988.75;;;6.86;83.50
77979;BME280;67169;50.268;8.694;2023-04-25T02:05:02;98980.81;;;6.83;83.91
77979;BME280;67169;50.268;8.694;2023-04-25T02:07:28;98782.13;;;5.60;81.52
77979;BME280;67169;50.268;8.694;2023-04-25T02:09:55;98979.97;;;6.82;81.79
77979;BME280;67169;50.268;8.694;2023-04-25T02:12:22;98978.22;;;6.81;81.95
77979;BME280;67169;50.268;8.694;2023-04-25T02:14:49;98958.34;;;6.63;82.67
77979;BME280;67169;50.268;8.694;2023-04-25T02:17:16;98972.09;;;6.78;83.68
77979;BME280;67169;50.268;8.694;2023-04-25T02:19:43;98977.31;;;6.81;84.86
77979;BME280;67169;50.268;8.694;2023-04-25T02:22:10;98971.97;;;6.81;85.28
77979;BME280;67169;50.268;8.694;2023-04-25T02:24:36;98979.19;;;6.79;83.85
77979;BME280;67169;50.268;8.694;2023-04-25T02:27:03;98977.44;;;6.78;82.69
77979;BME280;67169;50.268;8.694;2023-04-25T02:29:30;98965.84;;;6.79;83.49
77979;BME280;67169;50.268;8.694;2023-04-25T02:31:57;98966.53;;;6.84;81.75
77979;BME280;67169;50.268;8.694;2023-04-25T02:34:24;98963.75;;;6.87;82.41
77979;BME280;67169;50.268;8.694;2023-04-25T02:36:51;98910.19;;;6.40;82.67
77979;BME280;67169;50.268;8.694;2023-04-25T02:39:17;98982.06;;;6.73;82.77
77979;BME280;67169;50.268;8.694;2023-04-25T02:41:44;98981.25;;;6.71;83.11
77979;BME280;67169;50.268;8.694;2023-04-25T02:44:10;98975.00;;;6.72;83.26
77979;BME280;67169;50.268;8.694;2023-04-25T02:46:37;98984.84;;;6.70;82.81
77979;BME280;67169;50.268;8.694;2023-04-25T02:49:05;98969.69;;;6.70;83.39
77979;BME280;67169;50.268;8.694;2023-04-25T02:51:32;98982.25;;;6.68;83.23
77979;BME280;67169;50.268;8.694;2023-04-25T02:53:58;98975.41;;;6.59;83.51
77979;BME280;67169;50.268;8.694;2023-04-25T02:56:25;98987.25;;;6.52;82.97
77979;BME280;67169;50.268;8.694;2023-04-25T02:58:52;98985.63;;;6.47;83.34
77979;BME280;67169;50.268;8.694;2023-04-25T03:01:19;98987.44;;;6.46;82.17
77979;BME280;67169;50.268;8.694;2023-04-25T03:03:45;98984.94;;;6.41;80.63
77979;BME280;67169;50.268;8.694;2023-04-25T03:06:13;98984.19;;;6.36;81.26
77979;BME280;67169;50.268;8.694;2023-04-25T03:08:40;98984.44;;;6.30;80.95
77979;BME280;67169;50.268;8.694;2023-04-25T03:11:07;98972.25;;;6.22;79.58
77979;BME280;67169;50.268;8.694;2023-04-25T03:13:33;98981.75;;;6.30;79.98
77979;BME280;67169;50.268;8.694;2023-04-25T03:16:00;98899.56;;;5.85;80.57
77979;BME280;67169;50.268;8.694;2023-04-25T03:18:26;98991.78;;;6.24;80.53
77979;BME280;67169;50.268;8.694;2023-04-25T03:20:53;98990.13;;;6.20;79.50
77979;BME280;67169;50.268;8.694;2023-04-25T03:23:21;98994.03;;;6.09;81.07
77979;BME280;67169;50.268;8.694;2023-04-25T03:25:47;99001.19;;;6.07;81.28
77979;BME280;67169;50.268;8.694;2023-04-25T03:28:14;98994.22;;;6.03;81.29
77979;BME280;67169;50.268;8.694;2023-04-25T03:30:41;98997.91;;;5.99;81.04
77979;BME280;67169;50.268;8.694;2023-04-25T03:33:07;98994.41;;;5.97;81.52
77979;BME280;67169;50.268;8.694;2023-04-25T03:35:34;98994.41;;;5.97;81.02
77979;BME280;67169;50.268;8.694;2023-04-25T03:38:00;98997.94;;;5.98;81.57
77979;BME280;67169;50.268;8.694;2023-04-25T03:40:28;99001.28;;;6.04;79.53
77979;BME280;67169;50.268;8.694;2023-04-25T03:42:55;98956.75;;;5.77;78.95
77979;BME280;67169;50.268;8.694;2023-04-25T03:45:21;99003.97;;;6.04;79.72
77979;BME280;67169;50.268;8.694;2023-04-25T03:47:48;99004.22;;;5.95;80.27
77979;BME280;67169;50.268;8.694;2023-04-25T03:50:15;99003.06;;;5.76;80.92
77979;BME280;67169;50.268;8.694;2023-04-25T03:52:42;99008.13;;;5.83;81.09
77979;BME280;67169;50.268;8.694;2023-04-25T03:55:09;99012.53;;;5.86;81.46
77979;BME280;67169;50.268;8.694;2023-04-25T03:57:37;99021.41;;;5.85;81.96
77979;BME280;67169;50.268;8.694;2023-04-25T04:00:04;99018.22;;;5.74;81.65
77979;BME280;67169;50.268;8.694;2023-04-25T04:02:31;99025.09;;;5.82;81.85
77979;BME280;67169;50.268;8.694;2023-04-25T04:04:58;98995.88;;;5.48;81.97
77979;BME280;67169;50.268;8.694;2023-04-25T04:07:24;99037.66;;;5.79;82.34
77979;BME280;67169;50.268;8.694;2023-04-25T04:09:51;99035.09;;;5.74;82.19
77979;BME280;67169;50.268;8.694;2023-04-25T04:12:17;99046.00;;;5.66;80.41
77979;BME280;67169;50.268;8.694;2023-04-25T04:14:45;99038.25;;;5.59;81.26
77979;BME280;67169;50.268;8.694;2023-04-25T04:17:12;99031.94;;;5.61;81.16
77979;BME280;67169;50.268;8.694;2023-04-25T04:19:38;99041.16;;;5.50;80.57
77979;BME280;67169;50.268;8.694;2023-04-25T04:22:05;99035.88;;;5.48;80.31
77979;BME280;67169;50.268;8.694;2023-04-25T04:24:31;99039.56;;;5.44;80.87
77979;BME280;67169;50.268;8.694;2023-04-25T04:26:58;99045.00;;;5.39;81.92
77979;BME280;67169;50.268;8.694;2023-04-25T04:29:25;99052.19;;;5.37;82.95
77979;BME280;67169;50.268;8.694;2023-04-25T04:31:53;99038.91;;;5.36;82.33
77979;BME280;67169;50.268;8.694;2023-04-25T04:34:20;99061.06;;;5.38;80.92
77979;BME280;67169;50.268;8.694;2023-04-25T04:36:47;99062.94;;;5.34;81.02
77979;BME280;67169;50.268;8.694;2023-04-25T04:39:14;99054.91;;;5.36;82.19
77979;BME280;67169;50.268;8.694;2023-04-25T04:41:40;99055.66;;;5.41;81.71
77979;BME280;67169;50.268;8.694;2023-04-25T04:44:08;99052.91;;;5.44;82.16
77979;BME280;67169;50.268;8.694;2023-04-25T04:46:35;99065.22;;;5.48;81.41
77979;BME280;67169;50.268;8.694;2023-04-25T04:49:07;99050.19;;;5.45;80.82
77979;BME280;67169;50.268;8.694;2023-04-25T04:51:33;99058.25;;;5.44;82.03
77979;BME280;67169;50.268;8.694;2023-04-25T04:54:00;99070.78;;;5.40;80.52
77979;BME280;67169;50.268;8.694;2023-04-25T04:56:27;99060.00;;;5.43;79.32
77979;BME280;67169;50.268;8.694;2023-04-25T04:58:54;99061.53;;;5.52;80.13
77979;BME280;67169;50.268;8.694;2023-04-25T05:01:21;99071.13;;;5.59;80.76
77979;BME280;67169;50.268;8.694;2023-04-25T05:03:48;99066.47;;;5.66;78.35
77979;BME280;67169;50.268;8.694;2023-04-25T05:06:16;99070.66;;;5.75;80.15
77979;BME280;67169;50.268;8.694;2023-04-25T05:08:42;99068.09;;;5.71;80.62
77979;BME280;67169;50.268;8.694;2023-04-25T05:11:09;99066.06;;;5.80;78.86
77979;BME280;67169;50.268;8.694;2023-04-25T05:13:36;99075.72;;;5.84;78.68
77979;BME280;67169;50.268;8.694;2023-04-25T05:16:03;99076.75;;;5.80;78.18
77979;BME280;67169;50.268;8.694;2023-04-25T05:18:30;99076.91;;;5.74;79.01
77979;BME280;67169;50.268;8.694;2023-04-25T05:20:56;99083.63;;;5.87;77.88
77979;BME280;67169;50.268;8.694;2023-04-25T05:23:24;99078.31;;;5.87;75.64
77979;BME280;67169;50.268;8.694;2023-04-25T05:25:52;99086.22;;;5.90;77.24
77979;BME280;67169;50.268;8.694;2023-04-25T05:28:19;99085.38;;;5.88;76.12
77979;BME280;67169;50.268;8.694;2023-04-25T05:30:46;99079.81;;;5.97;76.51
77979;BME280;67169;50.268;8.694;2023-04-25T05:33:13;99089.53;;;6.00;75.43
77979;BME280;67169;50.268;8.694;2023-04-25T05:35:41;99083.94;;;6.07;75.50
77979;BME280;67169;50.268;8.694;2023-04-25T05:38:11;99086.97;;;6.25;75.72
77979;BME280;67169;50.268;8.694;2023-04-25T05:40:39;99085.84;;;6.32;74.48
77979;BME280;67169;50.268;8.694;2023-04-25T05:43:06;99095.47;;;6.37;74.44
77979;BME280;67169;50.268;8.694;2023-04-25T05:45:32;99100.94;;;6.33;74.52
77979;BME280;67169;50.268;8.694;2023-04-25T05:47:59;99094.38;;;6.43;73.41
77979;BME280;67169;50.268;8.694;2023-04-25T05:50:25;99099.69;;;6.45;73.17
77979;BME280;67169;50.268;8.694;2023-04-25T05:52:52;99110.38;;;6.45;72.00
77979;BME280;67169;50.268;8.694;2023-04-25T05:55:18;99100.56;;;6.45;73.87
77979;BME280;67169;50.268;8.694;2023-04-25T05:57:46;99099.63;;;6.46;73.75
77979;BME280;67169;50.268;8.694;2023-04-25T06:00:14;99111.19;;;6.75;72.59
77979;BME280;67169;50.268;8.694;2023-04-25T06:02:41;99110.59;;;6.92;72.71
77979;BME280;67169;50.268;8.694;2023-04-25T06:05:08;99108.09;;;6.87;71.40
77979;BME280;67169;50.268;8.694;2023-04-25T06:07:35;99099.97;;;6.90;71.51
77979;BME280;67169;50.268;8.694;2023-04-25T06:10:01;99097.34;;;6.88;69.70
77979;BME280;67169;50.268;8.694;2023-04-25T06:12:31;99100.25;;;6.81;71.37
77979;BME280;67169;50.268;8.694;2023-04-25T06:14:59;99098.94;;;6.94;70.74
77979;BME280;67169;50.268;8.694;2023-04-25T06:17:25;99097.78;;;7.01;70.87
77979;BME280;67169;50.268;8.694;2023-04-25T06:19:52;99096.34;;;6.91;72.42
77979;BME280;67169;50.268;8.694;2023-04-25T06:22:18;99102.38;;;6.98;72.55
77979;BME280;67169;50.268;8.694;2023-04-25T06:24:45;99093.56;;;7.21;70.47
77979;BME280;67169;50.268;8.694;2023-04-25T06:27:12;99108.75;;;7.20;71.25
77979;BME280;67169;50.268;8.694;2023-04-25T06:29:38;99104.38;;;7.18;69.54
77979;BME280;67169;50.268;8.694;2023-04-25T06:32:06;99086.38;;;7.23;69.59
77979;BME280;67169;50.268;8.694;2023-04-25T06:34:33;99098.72;;;7.25;69.39
77979;BME280;67169;50.268;8.694;2023-04-25T06:36:59;99104.81;;;7.30;69.95
77979;BME280;67169;50.268;8.694;2023-04-25T06:39:26;99089.25;;;7.17;70.35
77979;BME280;67169;50.268;8.694;2023-04-25T06:41:53;99112.34;;;7.44;69.47
77979;BME280;67169;50.268;8.694;2023-04-25T06:44:19;99099.25;;;7.85;69.76
77979;BME280;67169;50.268;8.694;2023-04-25T06:46:48;99101.09;;;8.06;68.26
77979;BME280;67169;50.268;8.694;2023-04-25T06:49:16;99098.13;;;8.36;68.35
77979;BME280;67169;50.268;8.694;2023-04-25T06:51:43;99105.72;;;8.25;66.94
77979;BME280;67169;50.268;8.694;2023-04-25T06:54:09;99107.59;;;8.46;66.79
77979;BME280;67169;50.268;8.694;2023-04-25T06:56:36;99113.44;;;8.11;65.68
77979;BME280;67169;50.268;8.694;2023-04-25T06:59:02;99102.59;;;7.90;66.74
77979;BME280;67169;50.268;8.694;2023-04-25T07:01:29;99111.00;;;8.04;66.75
77979;BME280;67169;50.268;8.694;2023-04-25T07:03:55;99119.31;;;7.73;66.71
77979;BME280;67169;50.268;8.694;2023-04-25T07:06:23;99117.91;;;7.87;67.34
77979;BME280;67169;50.268;8.694;2023-04-25T07:08:51;99109.38;;;8.00;65.98
77979;BME280;67169;50.268;8.694;2023-04-25T07:11:17;99119.72;;;7.86;65.64
77979;BME280;67169;50.268;8.694;2023-04-25T07:13:44;99125.00;;;7.88;64.73
77979;BME280;67169;50.268;8.694;2023-04-25T07:16:10;99127.63;;;7.66;66.45
77979;BME280;67169;50.268;8.694;2023-04-25T07:18:37;99134.38;;;7.76;63.27
77979;BME280;67169;50.268;8.694;2023-04-25T07:21:03;99128.63;;;8.10;64.22
77979;BME280;67169;50.268;8.694;2023-04-25T07:23:31;99136.84;;;8.05;65.23
77979;BME280;67169;50.268;8.694;2023-04-25T07:25:58;99131.72;;;8.23;63.96
77979;BME280;67169;50.268;8.694;2023-04-25T07:28:24;99142.59;;;8.18;63.93
77979;BME280;67169;50.268;8.694;2023-04-25T07:30:51;99143.97;;;8.53;63.03
77979;BME280;67169;50.268;8.694;2023-04-25T07:33:17;99144.63;;;8.80;62.58
77979;BME280;67169;50.268;8.694;2023-04-25T07:35:45;99136.41;;;8.85;64.62
77979;BME280;67169;50.268;8.694;2023-04-25T07:38:12;99131.47;;;8.96;61.80
77979;BME280;67169;50.268;8.694;2023-04-25T07:40:40;99127.47;;;9.07;62.52
77979;BME280;67169;50.268;8.694;2023-04-25T07:43:06;99145.41;;;9.04;65.50
77979;BME280;67169;50.268;8.694;2023-04-25T07:45:32;99148.88;;;9.28;62.76
77979;BME280;67169;50.268;8.694;2023-04-25T07:47:59;99148.81;;;9.30;60.74
77979;BME280;67169;50.268;8.694;2023-04-25T07:50:25;99156.56;;;8.95;62.74
77979;BME280;67169;50.268;8.694;2023-04-25T07:52:52;99160.41;;;8.66;63.33
77979;BME280;67169;50.268;8.694;2023-04-25T07:55:18;99160.38;;;8.21;65.64
77979;BME280;67169;50.268;8.694;2023-04-25T07:57:46;99162.34;;;8.39;65.64
77979;BME280;67169;50.268;8.694;2023-04-25T08:00:14;99167.69;;;8.41;65.30
77979;BME280;67169;50.268;8.694;2023-04-25T08:02:40;99167.97;;;8.31;64.38
77979;BME280;67169;50.268;8.694;2023-04-25T08:05:07;99173.38;;;8.55;63.57
77979;BME280;67169;50.268;8.694;2023-04-25T08:07:37;99172.19;;;8.62;63.08
77979;BME280;67169;50.268;8.694;2023-04-25T08:10:04;99173.88;;;9.09;62.14
77979;BME280;67169;50.268;8.694;2023-04-25T08:12:31;99178.34;;;9.30;62.14
77979;BME280;67169;50.268;8.694;2023-04-25T08:14:59;99179.25;;;9.71;61.76
77979;BME280;67169;50.268;8.694;2023-04-25T08:17:25;99180.38;;;9.86;59.36
77979;BME280;67169;50.268;8.694;2023-04-25T08:19:52;99172.56;;;9.80;59.43
77979;BME280;67169;50.268;8.694;2023-04-25T08:22:19;99114.56;;;9.37;60.46
77979;BME280;67169;50.268;8.694;2023-04-25T08:24:45;99190.56;;;9.37;59.97
77979;BME280;67169;50.268;8.694;2023-04-25T08:27:12;99191.66;;;8.67;63.20
77979;BME280;67169;50.268;8.694;2023-04-25T08:29:38;99192.81;;;8.60;62.29
77979;BME280;67169;50.268;8.694;2023-04-25T08:32:06;99193.09;;;8.52;63.39
77979;BME280;67169;50.268;8.694;2023-04-25T08:34:33;99195.31;;;8.87;62.93
77979;BME280;67169;50.268;8.694;2023-04-25T08:36:59;99195.09;;;9.35;60.64
77979;BME280;67169;50.268;8.694;2023-04-25T08:39:35;99193.75;;;9.67;59.70
77979;BME280;67169;50.268;8.694;2023-04-25T08:42:02;99185.19;;;9.37;58.83
77979;BME280;67169;50.268;8.694;2023-04-25T08:44:33;99190.03;;;9.49;62.06
77979;BME280;67169;50.268;8.694;2023-04-25T08:47:01;99193.25;;;9.98;60.76
77979;BME280;67169;50.268;8.694;2023-04-25T08:49:29;99204.59;;;10.05;60.14
77979;BME280;67169;50.268;8.694;2023-04-25T08:51:57;99199.84;;;10.12;59.47
77979;BME280;67169;50.268;8.694;2023-04-25T08:54:27;99212.69;;;9.85;57.39
77979;BME280;67169;50.268;8.694;2023-04-25T08:56:54;99200.38;;;9.59;60.19
77979;BME280;67169;50.268;8.694;2023-04-25T08:59:21;99222.03;;;9.34;58.71
77979;BME280;67169;50.268;8.694;2023-04-25T09:01:49;99205.06;;;9.11;60.46
77979;BME280;67169;50.268;8.694;2023-04-25T09:04:17;99227.28;;;9.37;61.38
77979;BME280;67169;50.268;8.694;2023-04-25T09:06:45;99220.00;;;9.39;60.30
77979;BME280;67169;50.268;8.694;2023-04-25T09:09:12;99221.47;;;9.68;61.40
77979;BME280;67169;50.268;8.694;2023-04-25T09:11:39;99218.81;;;10.07;57.79
77979;BME280;67169;50.268;8.694;2023-04-25T09:14:13;99227.25;;;9.99;57.98
77979;BME280;67169;50.268;8.694;2023-04-25T09:17:00;99225.50;;;9.98;57.92
77979;BME280;67169;50.268;8.694;2023-04-25T09:19:29;99233.41;;;10.61;56.66
77979;BME280;67169;50.268;8.694;2023-04-25T09:21:58;99230.94;;;10.76;55.82
77979;BME280;67169;50.268;8.694;2023-04-25T09:24:32;99241.66;;;10.17;56.27
77979;BME280;67169;50.268;8.694;2023-04-25T09:26:59;99241.38;;;10.23;55.80
77979;BME280;67169;50.268;8.694;2023-04-25T09:29:30;99238.50;;;10.28;54.84
77979;BME280;67169;50.268;8.694;2023-04-25T09:32:19;99241.47;;;10.99;53.94
77979;BME280;67169;50.268;8.694;2023-04-25T09:34:47;99241.91;;;11.09;55.28
77979;BME280;67169;50.268;8.694;2023-04-25T09:37:18;99245.19;;;12.21;54.26
77979;BME280;67169;50.268;8.694;2023-04-25T09:39:46;99243.00;;;11.95;50.17
77979;BME280;67169;50.268;8.694;2023-04-25T09:42:13;99249.91;;;11.47;51.71
77979;BME280;67169;50.268;8.694;2023-04-25T09:44:42;99261.09;;;11.20;52.55
77979;BME280;67169;50.268;8.694;2023-04-25T09:47:10;99256.56;;;10.84;56.47
77979;BME280;67169;50.268;8.694;2023-04-25T09:49:38;99264.28;;;11.28;54.51
77979;BME280;67169;50.268;8.694;2023-04-25T09:52:06;99247.94;;;10.76;52.34
77979;BME280;67169;50.268;8.694;2023-04-25T09:54:34;99272.91;;;10.99;53.19
77979;BME280;67169;50.268;8.694;2023-04-25T09:57:04;99263.31;;;11.12;54.18
77979;BME280;67169;50.268;8.694;2023-04-25T09:59:38;99228.75;;;10.46;54.93
77979;BME280;67169;50.268;8.694;2023-04-25T10:02:06;99279.66;;;10.30;57.13
77979;BME280;67169;50.268;8.694;2023-04-25T10:04:34;99284.53;;;10.20;56.74
77979;BME280;67169;50.268;8.694;2023-04-25T10:07:02;99284.59;;;10.19;58.80
77979;BME280;67169;50.268;8.694;2023-04-25T10:09:31;99301.94;;;9.69;59.52
77979;BME280;67169;50.268;8.694;2023-04-25T10:12:00;99280.38;;;9.07;60.25
77979;BME280;67169;50.268;8.694;2023-04-25T10:14:27;99312.78;;;9.00;60.85
77979;BME280;67169;50.268;8.694;2023-04-25T10:16:54;99296.00;;;8.48;61.28
77979;BME280;67169;50.268;8.694;2023-04-25T10:19:22;99322.69;;;8.51;62.61
77979;BME280;67169;50.268;8.694;2023-04-25T10:21:51;99331.84;;;8.69;61.37
77979;BME280;67169;50.268;8.694;2023-04-25T10:24:19;99326.44;;;8.71;60.50
77979;BME280;67169;50.268;8.694;2023-04-25T10:26:46;99331.69;;;8.97;59.83
77979;BME280;67169;50.268;8.694;2023-04-25T10:29:21;99329.28;;;9.35;60.67
77979;BME280;67169;50.268;8.694;2023-04-25T10:31:49;99299.53;;;9.41;59.95
77979;BME280;67169;50.268;8.694;2023-04-25T10:34:15;99319.53;;;9.77;58.61
77979;BME280;67169;50.268;8.694;2023-04-25T10:36:42;99312.94;;;9.63;58.56
77979;BME280;67169;50.268;8.694;2023-04-25T10:39:09;99307.88;;;10.18;59.30
77979;BME280;67169;50.268;8.694;2023-04-25T10:41:46;99320.09;;;10.48;55.26
77979;BME280;67169;50.268;8.694;2023-04-25T10:44:14;99315.75;;;10.03;53.06
77979;BME280;67169;50.268;8.694;2023-04-25T10:46:44;99311.91;;;10.69;51.70
77979;BME280;67169;50.268;8.694;2023-04-25T10:49:10;99314.50;;;11.29;50.79
77979;BME280;67169;50.268;8.694;2023-04-25T10:51:37;99312.13;;;11.96;50.81
77979;BME280;67169;50.268;8.694;2023-04-25T10:54:06;99313.53;;;11.30;48.52
77979;BME280;67169;50.268;8.694;2023-04-25T10:56:36;99298.78;;;10.63;49.89
77979;BME280;67169;50.268;8.694;2023-04-25T10:59:06;99321.34;;;10.39;51.85
77979;BME280;67169;50.268;8.694;2023-04-25T11:01:39;99236.97;;;9.61;52.22
77979;BME280;67169;50.268;8.694;2023-04-25T11:04:06;99325.78;;;9.99;52.92
77979;BME280;67169;50.268;8.694;2023-04-25T11:06:55;99277.84;;;9.46;53.96
77979;BME280;67169;50.268;8.694;2023-04-25T11:09:24;99322.97;;;9.80;52.62
77979;BME280;67169;50.268;8.694;2023-04-25T11:11:53;99328.00;;;10.10;53.65
77979;BME280;67169;50.268;8.694;2023-04-25T11:14:20;99314.69;;;10.68;53.74
77979;BME280;67169;50.268;8.694;2023-04-25T11:16:52;99303.13;;;11.04;50.88
77979;BME280;67169;50.268;8.694;2023-04-25T11:19:19;99315.56;;;10.68;49.81
77979;BME280;67169;50.268;8.694;2023-04-25T11:21:45;99318.66;;;10.99;50.48
77979;BME280;67169;50.268;8.694;2023-04-25T11:24:12;99307.28;;;11.66;48.97
77979;BME280;67169;50.268;8.694;2023-04-25T11:26:41;99315.47;;;11.46;45.18
77979;BME280;67169;50.268;8.694;2023-04-25T11:29:07;99306.91;;;11.56;45.38
77979;BME280;67169;50.268;8.694;2023-04-25T11:31:34;99304.88;;;11.43;44.57
77979;BME280;67169;50.268;8.694;2023-04-25T11:34:02;99286.38;;;11.54;43.54
77979;BME280;67169;50.268;8.694;2023-04-25T11:36:50;99290.25;;;12.19;44.93
77979;BME280;67169;50.268;8.694;2023-04-25T11:39:18;99304.50;;;12.56;42.92
77979;BME280;67169;50.268;8.694;2023-04-25T11:41:44;99309.75;;;12.24;43.15
77979;BME280;67169;50.268;8.694;2023-04-25T11:44:11;99317.09;;;11.50;45.70
77979;BME280;67169;50.268;8.694;2023-04-25T11:46:38;99317.06;;;10.95;45.84
77979;BME280;67169;50.268;8.694;2023-04-25T11:49:06;99318.13;;;10.51;45.79
77979;BME280;67169;50.268;8.694;2023-04-25T11:51:37;99326.13;;;10.32;47.29
77979;BME280;67169;50.268;8.694;2023-04-25T11:54:04;99319.69;;;9.94;48.67
77979;BME280;67169;50.268;8.694;2023-04-25T11:56:31;99331.94;;;9.81;49.78
77979;BME280;67169;50.268;8.694;2023-04-25T11:58:58;99347.09;;;9.60;49.80
77979;BME280;67169;50.268;8.694;2023-04-25T12:01:29;99340.03;;;9.79;50.71
77979;BME280;67169;50.268;8.694;2023-04-25T12:03:56;99356.72;;;9.65;51.70
77979;BME280;67169;50.268;8.694;2023-04-25T12:06:27;99368.38;;;9.42;51.79
77979;BME280;67169;50.268;8.694;2023-04-25T12:09:01;99370.28;;;9.17;52.23
77979;BME280;67169;50.268;8.694;2023-04-25T12:11:29;99379.38;;;9.13;53.17
77979;BME280;67169;50.268;8.694;2023-04-25T12:14:01;99383.59;;;8.96;52.91
77979;BME280;67169;50.268;8.694;2023-04-25T12:16:28;99386.56;;;8.89;52.88
77979;BME280;67169;50.268;8.694;2023-04-25T12:18:55;99384.03;;;8.84;54.70
77979;BME280;67169;50.268;8.694;2023-04-25T12:21:22;99394.16;;;8.76;53.42
77979;BME280;67169;50.268;8.694;2023-04-25T12:23:50;99389.69;;;8.76;53.72
77979;BME280;67169;50.268;8.694;2023-04-25T12:26:19;99383.16;;;8.84;53.33
77979;BME280;67169;50.268;8.694;2023-04-25T12:28:47;99370.28;;;9.17;53.46
77979;BME280;67169;50.268;8.694;2023-04-25T12:31:13;99372.72;;;9.46;53.44
77979;BME280;67169;50.268;8.694;2023-04-25T12:33:41;99361.63;;;10.18;49.51
77979;BME280;67169;50.268;8.694;2023-04-25T12:36:09;99284.47;;;10.22;49.95
77979;BME280;67169;50.268;8.694;2023-04-25T12:38:39;99356.41;;;11.16;48.85
77979;BME280;67169;50.268;8.694;2023-04-25T12:41:08;99358.38;;;11.86;45.79
77979;BME280;67169;50.268;8.694;2023-04-25T12:43:35;99350.84;;;12.29;45.49
77979;BME280;67169;50.268;8.694;2023-04-25T12:46:01;99353.03;;;13.22;44.45
77979;BME280;67169;50.268;8.694;2023-04-25T12:48:28;99299.38;;;13.16;44.46
77979;BME280;67169;50.268;8.694;2023-04-25T12:50:54;99276.38;;;12.09;42.48
77979;BME280;67169;50.268;8.694;2023-04-25T12:53:22;99345.09;;;11.46;45.93
77979;BME280;67169;50.268;8.694;2023-04-25T12:55:50;99359.91;;;11.37;45.37
77979;BME280;67169;50.268;8.694;2023-04-25T12:58:19;99352.63;;;11.39;46.32
77979;BME280;67169;50.268;8.694;2023-04-25T13:00:45;99370.41;;;11.04;46.24
77979;BME280;67169;50.268;8.694;2023-04-25T13:03:12;99367.88;;;10.61;46.94
77979;BME280;67169;50.268;8.694;2023-04-25T13:05:40;99376.19;;;9.92;48.07
77979;BME280;67169;50.268;8.694;2023-04-25T13:08:06;99378.59;;;9.78;48.73
77979;BME280;67169;50.268;8.694;2023-04-25T13:10:33;99366.69;;;9.84;47.74
77979;BME280;67169;50.268;8.694;2023-04-25T13:13:01;99368.41;;;10.07;48.54